M/V MiSS Mary Jean — WDG3633 — position and weather

sailwx.info

Track history (hours):
 
Tides and Currents Weather Stations Pressure Air Temp Water Temp Dewpoint Dewpoint Depression Visibility Wind Speed Wind Dir Waves Ship Positions

M/V MiSS Mary Jean

Owner: D&S Marine Service, LLC, Houma, LA. More information available from US FCC via Universal Licensing System and Coast Guard Vessel Documentation Center.

Last reported at 2018-Feb-18 18:38 UTC. Time now 2018-Feb-22 19:21 UTC.
Position N 27°49' W 097°10'.

Length 113 m; draft 3.2 m.

Type: . MMSI: 367528080.

Date/timePositionNaut miles runAvg speedWind from/ knotsBaromVisibWave heightAir tempDewpointWater temp
2018-Feb-18 18:38N 27°49' W 097°10'2 6.3
2018-Feb-18 18:19N 27°50' W 097°08'3 5.1
2018-Feb-18 17:41N 27°50' W 097°04'2 5.3
2018-Feb-18 17:24N 27°52' W 097°03'11 6.5
2018-Feb-18 15:38N 28°03' W 096°59'1 6.0
2018-Feb-18 15:27N 28°03' W 096°59'3 5.8
2018-Feb-18 15:00N 28°05' W 096°57'3 5.6
2018-Feb-18 14:29N 28°08' W 096°55'3 5.6
2018-Feb-18 14:00N 28°10' W 096°53'3 5.7
2018-Feb-18 13:27N 28°12' W 096°50'0 1.0
2018-Feb-18 13:01N 28°12' W 096°50'3 3.2
2018-Feb-18 12:13N 28°14' W 096°48'0 0.0
2018-Feb-18 11:58N 28°14' W 096°48'0 0.0
2018-Feb-18 07:36N 28°14' W 096°48'0 0.7
2018-Feb-18 07:28N 28°14' W 096°48'0 0.0
2018-Feb-18 06:25N 28°14' W 096°48'0 0.2
2018-Feb-18 05:59N 28°14' W 096°48'0 0.0
2018-Feb-18 05:30N 28°14' W 096°48'0 0.0
2018-Feb-18 04:28N 28°14' W 096°48'0 0.0
2018-Feb-18 03:52N 28°14' W 096°48'0 0.0
2018-Feb-18 03:27N 28°14' W 096°48'0 0.0
2018-Feb-18 03:00N 28°14' W 096°48'0 0.0
2018-Feb-18 02:11N 28°14' W 096°48'0 0.0
2018-Feb-18 02:00N 28°14' W 096°48'0 0.0
2018-Feb-18 01:30N 28°14' W 096°48'0 0.0
2018-Feb-18 00:58N 28°14' W 096°48'1 3.1
2018-Feb-18 00:30N 28°15' W 096°46'3 6.3
2018-Feb-17 23:58N 28°17' W 096°43'69 1.7
2018-Feb-16 06:11N 28°48' W 095°33'0 0.0
2018-Feb-16 05:53N 28°48' W 095°33'0 0.0
2018-Feb-16 05:15N 28°48' W 095°33'0 0.0
2018-Feb-16 04:56N 28°48' W 095°33'0 0.0
2018-Feb-16 04:29N 28°48' W 095°33'0 0.0
2018-Feb-16 03:56N 28°48' W 095°33'0 0.0
2018-Feb-16 03:30N 28°48' W 095°33'0 0.0
2018-Feb-16 02:58N 28°48' W 095°33'0 0.0
2018-Feb-16 02:27N 28°48' W 095°33'0 0.0
2018-Feb-16 02:00N 28°48' W 095°33'0 0.0
2018-Feb-16 01:22N 28°48' W 095°33'0 0.0
2018-Feb-16 00:54N 28°48' W 095°33'0 0.0
2018-Feb-16 00:18N 28°48' W 095°33'0 0.0
2018-Feb-15 23:57N 28°48' W 095°33'0 0.0
2018-Feb-15 23:19N 28°48' W 095°33'0 0.0
2018-Feb-15 15:05N 28°48' W 095°33'0 0.0
2018-Feb-15 13:14N 28°48' W 095°33'0 0.0
2018-Feb-15 07:07N 28°48' W 095°33'0 0.0
2018-Feb-15 06:54N 28°48' W 095°33'0 0.0
2018-Feb-15 06:23N 28°48' W 095°33'0 0.0
2018-Feb-15 03:07N 28°48' W 095°33'0 0.0
2018-Feb-15 02:45N 28°48' W 095°33'0 0.0
2018-Feb-14 19:35N 28°48' W 095°33'0 0.3
2018-Feb-14 19:23N 28°48' W 095°33'0 0.1
2018-Feb-14 18:22N 28°48' W 095°33'0 0.0
2018-Feb-14 17:55N 28°48' W 095°33'56 1.3
2018-Feb-12 21:45N 29°31' W 094°53'1 5.0
2018-Feb-12 21:30N 29°32' W 094°54'3 5.3
2018-Feb-12 21:00N 29°34' W 094°55'3 5.9
2018-Feb-12 20:30N 29°36' W 094°57'3 6.2
2018-Feb-12 20:01N 29°39' W 094°58'3 6.3
2018-Feb-12 19:30N 29°42' W 095°00'3 5.3
2018-Feb-12 19:00N 29°44' W 095°03'3 0.2
2018-Feb-12 01:05N 29°46' W 095°06'3 0.1
2018-Feb-10 10:06N 29°44' W 095°03'0 0.0
2018-Feb-10 09:21N 29°44' W 095°03'0 0.0
2018-Feb-10 07:37N 29°44' W 095°03'0 0.0
2018-Feb-10 07:14N 29°44' W 095°03'0 0.0
2018-Feb-10 04:38N 29°44' W 095°03'6 0.3
2018-Feb-09 09:01N 29°40' W 094°58'  
Track history (hours):
 
Tides and Currents Weather Stations Pressure Air Temp Water Temp Dewpoint Dewpoint Depression Visibility Wind Speed Wind Dir Waves Ship Positions

M/V MiSS Mary Jean

Owner: D&S Marine Service, LLC, Houma, LA. More information available from US FCC via Universal Licensing System and Coast Guard Vessel Documentation Center.

Last reported at 2018-Feb-18 18:38 UTC. Time now 2018-Feb-22 19:21 UTC.
Position N 27°49' W 097°10'.

Length 113 m; draft 3.2 m.

Type: . MMSI: 367528080.

Date/timePositionNaut miles runAvg speedWind from/ knotsBaromVisibWave heightAir tempDewpointWater temp
2018-Feb-18 18:38N 27°49' W 097°10'2 6.3
2018-Feb-18 18:19N 27°50' W 097°08'3 5.1
2018-Feb-18 17:41N 27°50' W 097°04'2 5.3
2018-Feb-18 17:24N 27°52' W 097°03'11 6.5
2018-Feb-18 15:38N 28°03' W 096°59'1 6.0
2018-Feb-18 15:27N 28°03' W 096°59'3 5.8
2018-Feb-18 15:00N 28°05' W 096°57'3 5.6
2018-Feb-18 14:29N 28°08' W 096°55'3 5.6
2018-Feb-18 14:00N 28°10' W 096°53'3 5.7
2018-Feb-18 13:27N 28°12' W 096°50'0 1.0
2018-Feb-18 13:01N 28°12' W 096°50'3 3.2
2018-Feb-18 12:13N 28°14' W 096°48'0 0.0
2018-Feb-18 11:58N 28°14' W 096°48'0 0.0
2018-Feb-18 07:36N 28°14' W 096°48'0 0.7
2018-Feb-18 07:28N 28°14' W 096°48'0 0.0
2018-Feb-18 06:25N 28°14' W 096°48'0 0.2
2018-Feb-18 05:59N 28°14' W 096°48'0 0.0
2018-Feb-18 05:30N 28°14' W 096°48'0 0.0
2018-Feb-18 04:28N 28°14' W 096°48'0 0.0
2018-Feb-18 03:52N 28°14' W 096°48'0 0.0
2018-Feb-18 03:27N 28°14' W 096°48'0 0.0
2018-Feb-18 03:00N 28°14' W 096°48'0 0.0
2018-Feb-18 02:11N 28°14' W 096°48'0 0.0
2018-Feb-18 02:00N 28°14' W 096°48'0 0.0
2018-Feb-18 01:30N 28°14' W 096°48'0 0.0
2018-Feb-18 00:58N 28°14' W 096°48'1 3.1
2018-Feb-18 00:30N 28°15' W 096°46'3 6.3
2018-Feb-17 23:58N 28°17' W 096°43'69 1.7
2018-Feb-16 06:11N 28°48' W 095°33'0 0.0
2018-Feb-16 05:53N 28°48' W 095°33'0 0.0
2018-Feb-16 05:15N 28°48' W 095°33'0 0.0
2018-Feb-16 04:56N 28°48' W 095°33'0 0.0
2018-Feb-16 04:29N 28°48' W 095°33'0 0.0
2018-Feb-16 03:56N 28°48' W 095°33'0 0.0
2018-Feb-16 03:30N 28°48' W 095°33'0 0.0
2018-Feb-16 02:58N 28°48' W 095°33'0 0.0
2018-Feb-16 02:27N 28°48' W 095°33'0 0.0
2018-Feb-16 02:00N 28°48' W 095°33'0 0.0
2018-Feb-16 01:22N 28°48' W 095°33'0 0.0
2018-Feb-16 00:54N 28°48' W 095°33'0 0.0
2018-Feb-16 00:18N 28°48' W 095°33'0 0.0
2018-Feb-15 23:57N 28°48' W 095°33'0 0.0
2018-Feb-15 23:19N 28°48' W 095°33'0 0.0
2018-Feb-15 15:05N 28°48' W 095°33'0 0.0
2018-Feb-15 13:14N 28°48' W 095°33'0 0.0
2018-Feb-15 07:07N 28°48' W 095°33'0 0.0
2018-Feb-15 06:54N 28°48' W 095°33'0 0.0
2018-Feb-15 06:23N 28°48' W 095°33'0 0.0
2018-Feb-15 03:07N 28°48' W 095°33'0 0.0
2018-Feb-15 02:45N 28°48' W 095°33'0 0.0
2018-Feb-14 19:35N 28°48' W 095°33'0 0.3
2018-Feb-14 19:23N 28°48' W 095°33'0 0.1
2018-Feb-14 18:22N 28°48' W 095°33'0 0.0
2018-Feb-14 17:55N 28°48' W 095°33'56 1.3
2018-Feb-12 21:45N 29°31' W 094°53'1 5.0
2018-Feb-12 21:30N 29°32' W 094°54'3 5.3
2018-Feb-12 21:00N 29°34' W 094°55'3 5.9
2018-Feb-12 20:30N 29°36' W 094°57'3 6.2
2018-Feb-12 20:01N 29°39' W 094°58'3 6.3
2018-Feb-12 19:30N 29°42' W 095°00'3 5.3
2018-Feb-12 19:00N 29°44' W 095°03'3 0.2
2018-Feb-12 01:05N 29°46' W 095°06'3 0.1
2018-Feb-10 10:06N 29°44' W 095°03'0 0.0
2018-Feb-10 09:21N 29°44' W 095°03'0 0.0
2018-Feb-10 07:37N 29°44' W 095°03'0 0.0
2018-Feb-10 07:14N 29°44' W 095°03'0 0.0
2018-Feb-10 04:38N 29°44' W 095°03'6 0.3
2018-Feb-09 09:01N 29°40' W 094°58'  

Dump ship's entire track history